Time;durP1;ratioP1;P1;durP2;ratioP2;P2;SDS_P1;SDS_P2;PMS_P1;PMS_P2;Temp;Humidity;BMP_temperature;BMP_pressure;BME280_temperature;BME280_humidity;BME280_pressure;Samples;Min_cycle;Max_cycle;Signal;HPM_P1;HPM_P2
2022/05/22 00:06:01;;;;;;;29.15;18.70;;;13.30;99.90;;;;;;21143431;27;20044;-53
2022/05/22 00:26:25;;;;;;;34.17;22.08;;;13.00;99.90;;;;;;21187382;27;20373;-58
2022/05/22 00:36:28;;;;;;;32.33;21.70;;;13.00;99.90;;;;;;21152834;27;20031;-58
2022/05/22 00:46:35;;;;;;;27.73;19.50;;;13.10;99.90;;;;;;21118657;27;20139;-58
2022/05/22 00:56:48;;;;;;;33.38;18.95;;;13.20;99.90;;;;;;21182822;27;20061;-58
2022/05/22 01:06:51;;;;;;;21.65;15.38;;;13.50;99.90;;;;;;21161397;27;20027;-58
2022/05/22 01:16:54;;;;;;;35.20;22.90;;;13.70;99.90;;;;;;21217688;27;20107;-58
2022/05/22 01:27:06;;;;;;;19.50;12.48;;;13.60;99.90;;;;;;21140374;27;20027;-58
2022/05/22 01:37:21;;;;;;;16.37;10.37;;;13.50;99.90;;;;;;21159783;27;20108;-53
2022/05/22 01:47:24;;;;;;;15.80;9.98;;;13.20;99.90;;;;;;21168748;27;20051;-52
2022/05/22 01:57:29;;;;;;;13.10;9.13;;;13.10;99.90;;;;;;21178406;27;20446;-50
2022/05/22 02:17:55;;;;;;;9.65;6.45;;;12.70;99.90;;;;;;21184421;27;20087;-58
2022/05/22 02:27:58;;;;;;;7.43;5.60;;;12.60;99.90;;;;;;21213090;27;20035;-52
2022/05/22 02:38:01;;;;;;;11.98;8.20;;;12.70;99.90;;;;;;21136954;28;20039;-58
2022/05/22 02:48:16;;;;;;;9.35;7.30;;;12.50;99.90;;;;;;21173489;28;20055;-58
2022/05/22 02:58:33;;;;;;;14.27;8.98;;;12.40;99.90;;;;;;21112492;28;20065;-51
2022/05/22 03:08:36;;;;;;;20.55;11.85;;;12.50;99.90;;;;;;21136981;27;20369;-48
2022/05/22 03:18:40;;;;;;;13.93;9.63;;;12.50;99.90;;;;;;21173834;27;20043;-47
2022/05/22 03:28:51;;;;;;;14.98;9.70;;;12.30;99.90;;;;;;21178255;27;20448;-51
2022/05/22 03:38:56;;;;;;;21.33;15.27;;;12.30;99.90;;;;;;21171851;27;20036;-49
2022/05/22 03:49:01;;;;;;;17.58;12.88;;;12.30;99.90;;;;;;21168373;27;20039;-52
2022/05/22 03:59:10;;;;;;;23.60;15.07;;;12.30;99.90;;;;;;21153993;27;20476;-49
2022/05/22 04:09:13;;;;;;;17.23;12.98;;;12.30;99.90;;;;;;21171360;27;20055;-58
2022/05/22 04:19:34;;;;;;;22.33;15.05;;;12.50;99.90;;;;;;21201732;27;20445;-58
2022/05/22 04:29:41;;;;;;;17.95;13.88;;;12.70;99.90;;;;;;21154495;28;20553;-50
2022/05/22 04:39:44;;;;;;;23.88;15.82;;;12.90;99.90;;;;;;21182047;27;20043;-58
2022/05/22 04:49:49;;;;;;;22.38;15.85;;;13.00;99.90;;;;;;21198954;27;20117;-58
2022/05/22 04:59:52;;;;;;;28.88;18.15;;;13.20;99.90;;;;;;21168762;27;20370;-53
2022/05/22 05:09:54;;;;;;;35.00;20.38;;;13.50;99.90;;;;;;21168377;27;20036;-54
2022/05/22 05:20:37;;;;;;;28.65;18.73;;;13.80;99.90;;;;;;20989960;28;20224;-57
2022/05/22 05:30:41;;;;;;;30.60;19.35;;;14.30;99.90;;;;;;20958776;28;20110;-55
2022/05/22 05:40:49;;;;;;;24.75;17.52;;;14.70;99.90;;;;;;20942672;28;20450;-53
2022/05/22 05:50:55;;;;;;;22.10;16.30;;;15.00;99.90;;;;;;21170738;27;20043;-54
2022/05/22 06:01:06;;;;;;;20.90;15.68;;;15.50;99.90;;;;;;21110958;28;20108;-59
2022/05/22 06:11:13;;;;;;;18.77;12.98;;;16.00;99.90;;;;;;21198418;27;20084;-58
2022/05/22 06:21:21;;;;;;;14.50;11.13;;;17.00;99.90;;;;;;21171844;27;20032;-59
2022/05/22 06:31:25;;;;;;;12.40;9.80;;;20.00;99.90;;;;;;21203985;27;20027;-59
2022/05/22 06:41:40;;;;;;;13.27;11.88;;;22.10;99.90;;;;;;21181673;27;20072;-59
2022/05/22 06:52:03;;;;;;;14.27;12.38;;;24.40;99.90;;;;;;21201554;27;20039;-57
2022/05/22 07:02:19;;;;;;;11.32;10.23;;;26.00;99.90;;;;;;21177580;27;20040;-58
2022/05/22 07:12:46;;;;;;;;;;;25.40;99.90;;;;;;20884483;28;20076;-57
2022/05/22 07:23:09;;;;;;;15.93;12.57;;;25.10;99.90;;;;;;20915980;28;19909;-57
2022/05/22 07:33:33;;;;;;;16.38;12.93;;;24.20;99.90;;;;;;20800192;28;20127;-56
2022/05/22 07:44:10;;;;;;;;;;;22.30;99.90;;;;;;20550751;28;20062;-59
2022/05/22 07:54:37;;;;;;;16.00;12.85;;;22.00;99.90;;;;;;20717455;28;19952;-59
2022/05/22 08:05:19;;;;;;;15.73;12.27;;;22.00;99.90;;;;;;20680128;28;20093;-60
2022/05/22 08:15:32;;;;;;;19.83;14.55;;;22.70;99.90;;;;;;20872304;28;20509;-57
2022/05/22 08:25:48;;;;;;;16.60;13.05;;;23.00;99.90;;;;;;21027996;28;20400;-60
2022/05/22 08:35:52;;;;;;;19.25;12.40;;;22.80;99.90;;;;;;21129044;28;20113;-59
2022/05/22 08:46:02;;;;;;;16.08;12.35;;;23.20;99.90;;;;;;21187323;27;20120;-60
2022/05/22 09:06:39;;;;;;;16.02;12.02;;;24.40;99.90;;;;;;21150694;28;20040;-60
2022/05/22 09:16:57;;;;;;;14.43;12.10;;;24.30;99.90;;;;;;21179836;27;20039;-58
2022/05/22 09:27:09;;;;;;;15.18;12.50;;;24.20;99.90;;;;;;21185988;27;20033;-60
2022/05/22 09:37:14;;;;;;;12.63;9.27;;;25.10;99.90;;;;;;21140143;27;20122;-62
2022/05/22 09:47:46;;;;;;;12.05;9.98;;;26.60;99.90;;;;;;21191722;27;20462;-62
2022/05/22 09:57:52;;;;;;;11.40;10.32;;;27.00;99.90;;;;;;21142197;27;20545;-63
2022/05/22 10:07:59;;;;;;;11.83;10.63;;;27.90;99.90;;;;;;21189981;27;20035;-64
2022/05/22 10:18:17;;;;;;;14.65;10.20;;;28.80;98.40;;;;;;21146823;27;20032;-65
2022/05/22 10:28:27;;;;;;;10.43;9.25;;;28.30;98.50;;;;;;21164048;27;20051;-59
2022/05/22 10:39:09;;;;;;;14.45;10.00;;;28.40;97.30;;;;;;21212728;27;20088;-58
2022/05/22 10:49:12;;;;;;;13.30;10.25;;;28.80;96.50;;;;;;21183776;28;20051;-62
2022/05/22 10:59:22;;;;;;;11.63;10.35;;;27.90;96.10;;;;;;21174507;28;20039;-63
2022/05/22 11:09:34;;;;;;;13.82;12.07;;;26.30;99.90;;;;;;21211731;28;20039;-64
2022/05/22 11:19:42;;;;;;;13.18;10.65;;;27.50;99.50;;;;;;21210707;28;20111;-64
2022/05/22 11:30:32;;;;;;;14.13;12.45;;;28.80;97.70;;;;;;21216704;27;20023;-64
2022/05/22 11:41:17;;;;;;;13.15;11.65;;;28.90;97.30;;;;;;20865535;28;20177;-65
2022/05/22 11:51:34;;;;;;;15.38;11.15;;;28.80;96.50;;;;;;20620812;28;20102;-64
2022/05/22 12:02:13;;;;;;;11.18;9.93;;;28.70;96.30;;;;;;20609911;28;20078;-63
2022/05/22 12:12:49;;;;;;;15.02;12.27;;;27.80;95.70;;;;;;20778656;28;20045;-63
2022/05/22 12:23:16;;;;;;;12.07;10.35;;;26.30;97.60;;;;;;20993368;27;20047;-63
2022/05/22 12:33:21;;;;;;;11.63;9.70;;;25.50;99.90;;;;;;21221847;27;20034;-64
2022/05/22 12:43:25;;;;;;;9.93;8.77;;;25.70;99.00;;;;;;21218683;27;20119;-64
2022/05/22 12:53:32;;;;;;;13.27;8.57;;;26.50;98.70;;;;;;21217894;27;20043;-64
2022/05/22 13:03:40;;;;;;;12.95;8.23;;;26.40;97.80;;;;;;21201958;27;20377;-63
2022/05/22 13:13:52;;;;;;;12.18;9.07;;;26.50;97.50;;;;;;21201817;27;20433;-63
2022/05/22 13:24:06;;;;;;;14.27;11.55;;;26.40;97.30;;;;;;21200067;27;20562;-62
2022/05/22 13:34:30;;;;;;;27.48;15.27;;;24.60;98.50;;;;;;21210451;27;20035;-60
2022/05/22 13:45:08;;;;;;;16.95;15.18;;;22.90;99.40;;;;;;21206506;27;20055;-60
2022/05/22 13:55:19;;;;;;;14.80;12.52;;;21.30;99.90;;;;;;20887154;28;20420;-59
2022/05/22 14:05:33;;;;;;;19.45;12.95;;;20.60;99.90;;;;;;20869639;28;20040;-55
2022/05/22 14:15:35;;;;;;;18.52;13.23;;;21.60;99.90;;;;;;20882072;28;20194;-61
2022/05/22 14:25:40;;;;;;;22.33;14.15;;;22.40;99.90;;;;;;20970930;27;20048;-61
2022/05/22 14:35:48;;;;;;;16.55;12.73;;;23.00;99.90;;;;;;21212292;27;20031;-61
2022/05/22 14:45:54;;;;;;;14.90;12.93;;;23.20;99.90;;;;;;21195473;28;20047;-61
2022/05/22 14:56:12;;;;;;;18.77;13.18;;;23.00;99.90;;;;;;21191953;28;20104;-61
2022/05/22 15:06:24;;;;;;;14.55;12.50;;;23.10;99.90;;;;;;21206245;27;20553;-61
2022/05/22 15:16:36;;;;;;;13.52;12.15;;;23.30;99.90;;;;;;21210054;27;20035;-56
2022/05/22 15:26:47;;;;;;;16.15;13.27;;;23.30;99.90;;;;;;21225267;27;20034;-60
2022/05/22 15:36:51;;;;;;;15.50;13.73;;;23.30;99.90;;;;;;21226125;27;20035;-56
2022/05/22 15:47:18;;;;;;;16.60;14.02;;;23.10;99.90;;;;;;21196407;27;20121;-56
2022/05/22 15:57:23;;;;;;;19.37;15.07;;;22.80;99.90;;;;;;21151153;27;20484;-61
2022/05/22 16:07:30;;;;;;;16.77;15.05;;;22.10;99.90;;;;;;21178897;27;20073;-60
2022/05/22 16:17:34;;;;;;;20.05;14.82;;;22.00;99.90;;;;;;21187006;27;20035;-61
2022/05/22 16:27:36;;;;;;;17.02;14.55;;;22.20;99.90;;;;;;21181389;27;20064;-60
2022/05/22 16:37:39;;;;;;;17.08;14.35;;;22.30;99.90;;;;;;21191598;27;20388;-60
2022/05/22 16:58:09;;;;;;;19.80;15.73;;;22.00;99.90;;;;;;21198530;27;20084;-60
2022/05/22 17:08:17;;;;;;;19.27;14.57;;;21.50;99.90;;;;;;21219223;27;20387;-59
2022/05/22 17:18:21;;;;;;;21.08;15.23;;;21.00;99.90;;;;;;21218945;27;20031;-59
2022/05/22 17:28:24;;;;;;;21.60;16.95;;;20.40;99.90;;;;;;21214461;27;20039;-55
2022/05/22 17:38:34;;;;;;;18.33;15.95;;;20.00;99.90;;;;;;21218029;27;20031;-59
2022/05/22 17:48:36;;;;;;;;;;;19.40;99.90;;;;;;21199107;27;20076;-60
2022/05/22 17:58:40;;;;;;;30.52;20.98;;;18.70;99.90;;;;;;21144812;27;20411;-59
2022/05/22 18:08:44;;;;;;;27.38;20.25;;;18.10;99.90;;;;;;21155780;27;20035;-59
2022/05/22 18:18:48;;;;;;;24.67;18.58;;;17.50;99.90;;;;;;21144654;27;20031;-59
2022/05/22 18:28:54;;;;;;;36.75;26.35;;;17.10;99.90;;;;;;21178911;27;20035;-59
2022/05/22 18:38:58;;;;;;;32.75;24.40;;;16.80;99.90;;;;;;21188565;27;20035;-59
2022/05/22 18:49:09;;;;;;;31.65;22.83;;;16.40;99.90;;;;;;21052244;28;20068;-58
2022/05/22 18:59:16;;;;;;;36.65;24.02;;;16.20;99.90;;;;;;20984508;28;20599;-59
2022/05/22 19:09:20;;;;;;;35.10;24.70;;;16.00;99.90;;;;;;20959717;28;20501;-59
2022/05/22 19:19:23;;;;;;;33.53;22.83;;;15.90;99.90;;;;;;20950518;28;20072;-59
2022/05/22 19:29:29;;;;;;;34.60;26.00;;;15.90;99.90;;;;;;20950348;28;20129;-60
2022/05/22 19:39:32;;;;;;;28.67;21.33;;;15.90;99.90;;;;;;21183290;28;20047;-59
2022/05/22 19:49:36;;;;;;;29.25;22.52;;;16.40;99.90;;;;;;21191708;27;20055;-59
2022/05/22 19:59:39;;;;;;;33.85;21.60;;;16.90;99.90;;;;;;21225017;27;20039;-59
2022/05/22 20:09:44;;;;;;;27.83;19.65;;;17.00;99.90;;;;;;21224622;27;20096;-59
2022/05/22 20:19:47;;;;;;;34.80;25.38;;;16.80;99.90;;;;;;21203402;27;20039;-54
2022/05/22 20:29:50;;;;;;;39.20;26.70;;;16.90;99.90;;;;;;21221868;27;20084;-60
2022/05/22 20:39:52;;;;;;;29.27;11.85;;;17.50;99.90;;;;;;21222828;27;20031;-58
2022/05/22 20:50:01;;;;;;;14.82;8.48;;;18.20;99.90;;;;;;21164694;27;20847;-48
2022/05/22 21:00:04;;;;;;;17.60;11.82;;;17.20;99.90;;;;;;21173475;27;20035;-51
2022/05/22 21:10:08;;;;;;;18.30;11.98;;;16.80;99.90;;;;;;21184019;27;20047;-57
2022/05/22 21:20:20;;;;;;;8.35;3.60;;;16.20;99.90;;;;;;21169359;27;20092;-46
2022/05/22 21:30:24;;;;;;;7.70;2.60;;;16.00;99.90;;;;;;21140684;27;20028;-57
2022/05/22 21:40:26;;;;;;;5.20;2.22;;;16.00;99.90;;;;;;21180409;27;20095;-57
2022/05/22 21:50:30;;;;;;;14.48;3.45;;;16.00;99.90;;;;;;21188855;27;20054;-51
2022/05/22 22:00:36;;;;;;;9.60;3.42;;;15.60;99.90;;;;;;21165091;27;20039;-58
2022/05/22 22:10:39;;;;;;;8.68;2.83;;;15.10;99.90;;;;;;21163561;27;20223;-57
2022/05/22 22:20:42;;;;;;;6.75;2.30;;;14.80;99.90;;;;;;21158975;27;20039;-58
2022/05/22 22:30:44;;;;;;;6.18;1.80;;;15.00;99.90;;;;;;21161570;27;20061;-54
2022/05/22 22:40:47;;;;;;;8.27;2.15;;;15.30;99.90;;;;;;21160123;27;20183;-52
2022/05/22 22:50:50;;;;;;;11.32;2.42;;;14.90;99.90;;;;;;21209016;28;20461;-58
2022/05/22 23:01:03;;;;;;;5.68;1.75;;;14.90;99.90;;;;;;21213586;28;20039;-58
2022/05/22 23:11:06;;;;;;;6.93;2.55;;;14.90;99.90;;;;;;21137186;28;20088;-57
2022/05/22 23:21:09;;;;;;;9.93;5.22;;;15.20;99.90;;;;;;21189082;27;20027;-58
2022/05/22 23:31:13;;;;;;;11.18;7.47;;;15.20;99.90;;;;;;21193753;27;20032;-55
2022/05/22 23:41:17;;;;;;;13.63;6.32;;;15.00;99.90;;;;;;21215885;27;20069;-58
2022/05/22 23:51:20;;;;;;;8.45;5.88;;;14.90;99.90;;;;;;21201649;27;20103;-58
